Latest Weather Observations for Cape Naturaliste

IDW60801

Issued at 6:05 pm WST Saturday 30 August 2014 (issued every 30 minutes, with the page automatically refreshed every 10 minutes)

About weather observations | Map of weather stations | Latest weather observations for WA | Other Formats
Station Details ID: 009519 Name: CAPE NATURALISTE Lat: -33.54 Lon: 115.02 Height: 109.0 m
Data from the previous 72 hours. | See also: Recent months at Cape Naturaliste
Date/Time
WST
Temp
°C
App
Temp
°C
Dew
Point
Rel
Hum
%
Delta-T
°C
Wind Press
QNH
hPa
Press
MSL
hPa
Rain
since 9 am
mm
Dir
 
Spd
km/h
Gust
km/h
Spd
kts
Gust
kts
30/06:00pm 11.3 8.4 8.0 80 1.6 S 13 17 7 9 1017.0 1017.0 0.4
30/05:30pm 11.8 8.2 8.5 80 1.6 S 17 20 9 11 1016.7 1016.7 0.4
30/05:00pm 12.4 9.7 9.1 80 1.7 S 13 17 7 9 1016.6 1016.6 0.4
30/04:30pm 13.1 11.7 9.4 78 1.9 W 7 22 4 12 1016.4 1016.4 0.4
30/04:00pm 12.9 12.7 9.2 78 1.9 CALM 0 0 0 0 1016.4 1016.4 0.4
30/03:30pm 12.4 10.5 8.9 79 1.8 W 9 13 5 7 1016.5 1016.5 0.4
30/03:00pm 12.8 6.9 8.9 77 2.0 W 30 35 16 19 1016.1 1016.1 0.4
30/02:30pm 13.3 8.6 9.2 76 2.1 SSW 24 35 13 19 1015.7 1015.7 0.4
30/02:00pm 12.7 8.2 8.6 76 2.1 SSW 22 32 12 17 1015.7 1015.7 0.4
30/01:30pm 13.6 11.3 8.9 73 2.4 SSW 11 17 6 9 1015.8 1015.8 0.2
30/01:00pm 13.7 9.6 7.9 68 2.9 WSW 19 22 10 12 1016.0 1016.0 0.0
30/12:30pm 14.6 10.5 8.5 67 3.1 SSW 20 26 11 14 1015.8 1015.8 0.0
30/12:00pm 14.7 10.7 8.4 66 3.2 S 19 26 10 14 1015.8 1015.8 0.0
30/11:30am 14.6 9.7 8.5 67 3.1 SSW 24 35 13 19 1016.0 1016.0 0.0
30/11:00am 15.1 11.3 7.4 60 3.8 SW 17 24 9 13 1016.0 1016.0 0.0
30/10:30am 15.9 12.1 8.9 63 3.6 SSW 19 26 10 14 1016.1 1016.1 0.0
30/10:00am 14.5 10.0 7.1 61 3.6 SW 20 28 11 15 1016.2 1016.2 0.0
30/09:30am 14.6 9.9 7.6 63 3.5 SSW 22 35 12 19 1016.2 1016.2 0.0
30/09:00am 13.7 9.2 6.8 63 3.3 SW 20 30 11 16 1015.6 1015.6 8.0
30/08:30am 13.5 9.1 7.3 66 3.0 SW 20 30 11 16 1015.2 1015.2 8.0
30/08:00am 13.2 8.5 7.9 70 2.6 SW 22 32 12 17 1014.9 1014.9 8.0
30/07:30am 13.2 8.7 8.7 74 2.3 SSW 22 30 12 16 1014.7 1014.7 7.8
30/07:00am 13.3 8.4 8.6 73 2.4 SW 24 32 13 17 1014.1 1014.1 7.8
30/06:30am 13.2 8.5 9.3 77 2.0 SSW 24 32 13 17 1013.8 1013.8 7.8
30/06:00am 13.0 9.1 9.4 79 1.8 SSW 20 32 11 17 1013.6 1013.6 7.8
30/05:30am 12.9 7.5 9.4 79 1.8 SW 28 35 15 19 1013.1 1013.1 7.8
30/05:00am 13.3 7.3 10.1 81 1.7 SW 32 41 17 22 1012.8 1012.8 7.8
30/04:30am 13.2 7.1 10.6 84 1.4 SW 33 43 18 23 1012.5 1012.5 7.8
30/04:02am 13.0 7.9 10.7 86 1.2 SW 28 46 15 25 1012.5 1012.5 7.8
30/04:00am 13.1 7.3 10.8 86 1.2 SW 32 46 17 25 1012.6 1012.6 7.8
30/03:30am 13.7 7.6 11.6 87 1.1 SW 35 48 19 26 1012.2 1012.1 7.8
30/03:00am 14.2 9.2 12.2 88 1.1 SW 30 43 16 23 1012.3 1012.2 7.6
30/02:44am 14.3 9.3 12.3 88 1.1 SW 30 50 16 27 1012.0 1011.9 7.6
30/02:30am 13.8 8.6 11.7 87 1.1 WSW 30 39 16 21 1012.0 1011.9 7.6
30/02:00am 13.7 9.7 11.7 88 1.1 WSW 24 33 13 18 1012.1 1012.0 7.6
30/01:30am 13.9 10.9 11.9 88 1.1 WSW 19 24 10 13 1012.2 1012.1 7.6
30/01:00am 14.2 10.3 12.1 87 1.1 W 24 30 13 16 1012.0 1011.9 6.2
30/12:30am 14.3 11.1 12.0 86 1.2 W 20 28 11 15 1012.0 1011.9 6.0
30/12:00am 14.6 11.5 12.1 85 1.4 W 20 26 11 14 1011.9 1011.8 5.2
 
Date/Time
WST
Temp
°C
App
Temp
°C
Dew
Point
Rel
Hum
%
Delta-T
°C
Wind Press
QNH
hPa
Press
MSL
hPa
Rain
since 9 am
mm
Dir
 
Spd
km/h
Gust
km/h
Spd
kts
Gust
kts
29/11:30pm 14.7 12.6 12.4 86 1.3 W 15 20 8 11 1011.9 1011.8 5.2
29/11:00pm 14.7 11.8 12.4 86 1.3 WNW 19 24 10 13 1012.0 1011.9 5.2
29/10:30pm 14.7 11.7 12.4 86 1.3 W 20 26 11 14 1012.1 1012.0 5.2
29/10:00pm 14.3 10.4 12.0 86 1.2 W 24 32 13 17 1012.2 1012.1 5.2
29/09:30pm 14.2 10.7 12.1 87 1.1 WNW 22 32 12 17 1012.0 1011.9 5.2
29/09:00pm 14.5 9.9 12.4 87 1.1 WNW 28 33 15 18 1012.4 1012.3 5.2
29/08:30pm 14.2 9.9 12.2 88 1.1 WNW 26 32 14 17 1012.5 1012.5 5.2
29/08:00pm 14.8 11.9 12.8 88 1.1 NW 20 28 11 15 1012.1 1012.0 5.0
29/07:30pm 14.9 11.3 12.9 88 1.1 NW 24 33 13 18 1012.1 1012.0 4.4
29/07:00pm 15.1 12.3 13.1 88 1.1 WNW 20 26 11 14 1011.8 1011.7 4.0
29/06:30pm 15.1 11.9 13.1 88 1.1 WNW 22 28 12 15 1011.3 1011.2 4.0
29/06:00pm 15.0 12.3 13.0 88 1.1 W 19 24 10 13 1011.0 1010.9 3.8
29/05:30pm 15.3 12.7 13.1 87 1.2 WNW 19 26 10 14 1011.3 1011.2 3.4
29/05:00pm 15.4 12.8 13.2 87 1.2 WNW 19 24 10 13 1010.9 1010.8 3.4
29/04:30pm 15.5 13.3 13.3 87 1.2 WNW 17 20 9 11 1010.7 1010.6 3.4
29/04:00pm 15.5 13.7 13.3 87 1.2 W 15 19 8 10 1010.9 1010.8 3.4
29/03:30pm 15.6 13.4 13.4 87 1.2 WNW 17 20 9 11 1010.9 1010.8 3.4
29/03:00pm 16.4 15.0 14.4 88 1.1 WNW 15 19 8 10 1010.6 1010.5 3.4
29/02:30pm 16.2 14.8 14.4 89 1.0 W 15 20 8 11 1010.7 1010.6 3.4
29/02:00pm 16.2 14.4 14.4 89 1.0 WSW 17 20 9 11 1010.6 1010.5 3.2
29/01:30pm 15.6 13.6 13.8 89 1.0 WSW 17 22 9 12 1010.8 1010.7 3.2
29/01:00pm 15.8 12.6 14.2 90 0.9 SW 24 32 13 17 1010.8 1010.7 3.2
29/12:30pm 15.8 11.1 14.2 90 0.9 WSW 32 43 17 23 1010.8 1010.7 3.0
29/12:25pm 15.4 9.9 13.6 89 1.0 WSW 35 50 19 27 1010.9 1010.8 3.0
29/12:00pm 15.7 9.5 13.9 89 1.0 W 39 50 21 27 1010.8 1010.7 3.0
29/11:30am 16.0 11.3 14.4 90 0.9 WNW 32 43 17 23 1011.0 1010.9 2.6
29/11:00am 16.8 13.1 15.0 89 1.0 WNW 28 35 15 19 1011.0 1010.9 1.6
29/10:30am 15.8 10.4 14.0 89 1.0 WNW 35 43 19 23 1011.3 1011.2 1.6
29/10:00am 15.8 10.4 14.0 89 1.0 WNW 35 44 19 24 1011.1 1011.0 1.0
29/09:30am 15.8 11.8 14.0 89 1.0 WNW 28 39 15 21 1011.1 1011.0 0.6
29/09:00am 15.7 11.2 13.9 89 1.0 WNW 30 41 16 22 1010.9 1010.8 14.8
29/08:30am 15.6 10.2 13.8 89 1.0 W 35 46 19 25 1011.2 1011.1 14.0
29/08:00am 15.7 9.9 13.9 89 1.0 W 37 46 20 25 1010.7 1010.6 13.6
29/07:30am 15.9 10.6 14.1 89 1.0 W 35 48 19 26 1010.2 1010.1 13.4
29/07:00am 15.9 11.1 14.1 89 1.0 WNW 32 43 17 23 1010.2 1010.1 12.8
29/06:30am 15.8 10.9 13.8 88 1.1 WNW 32 39 17 21 1009.9 1009.8 12.0
29/06:00am 15.8 11.4 14.0 89 1.0 W 30 41 16 22 1009.8 1009.7 11.8
29/05:30am 15.7 10.9 13.9 89 1.0 W 32 39 17 21 1009.6 1009.5 11.8
29/05:00am 15.9 10.6 14.1 89 1.0 WNW 35 44 19 24 1009.6 1009.5 11.8
29/04:30am 16.0 11.1 14.4 90 0.9 WNW 33 43 18 23 1009.3 1009.3 11.8
29/04:00am 15.8 10.5 14.2 90 0.9 WNW 35 46 19 25 1009.0 1009.0 11.8
29/03:30am 16.1 11.3 14.5 90 0.9 NW 33 46 18 25 1009.0 1009.0 11.2
29/03:00am 15.9 9.5 14.3 90 0.9 WNW 41 54 22 29 1009.5 1009.4 10.8
29/02:30am 16.6 10.1 15.0 90 0.9 NW 43 57 23 31 1009.5 1009.4 10.4
29/02:03am 16.9 11.2 15.2 90 1.0 NW 39 63 21 34 1009.9 1009.8 9.8
29/02:00am 16.8 11.5 15.2 90 0.9 NW 37 48 20 26 1009.9 1009.8 9.6
29/01:30am 16.7 11.7 15.1 90 0.9 NW 35 52 19 28 1010.2 1010.1 9.4
29/01:00am 16.5 11.4 14.9 90 0.9 NW 35 46 19 25 1010.3 1010.2 9.2
29/12:30am 16.4 11.3 14.8 90 0.9 NW 35 46 19 25 1010.5 1010.4 9.2
29/12:00am 16.2 10.7 14.6 90 0.9 NW 37 46 20 25 1010.9 1010.8 9.2
 
Date/Time
WST
Temp
°C
App
Temp
°C
Dew
Point
Rel
Hum
%
Delta-T
°C
Wind Press
QNH
hPa
Press
MSL
hPa
Rain
since 9 am
mm
Dir
 
Spd
km/h
Gust
km/h
Spd
kts
Gust
kts
28/11:37pm 16.6 12.1 15.0 90 0.9 NW 32 50 17 27 1010.9 1010.8 9.0
28/11:30pm 16.3 11.7 14.5 89 1.0 NW 32 43 17 23 1011.0 1010.9 8.4
28/11:00pm 16.6 10.7 14.8 89 1.0 NW 39 48 21 26 1011.5 1011.4 6.2
28/10:30pm 16.2 10.9 14.2 88 1.1 NW 35 50 19 27 1011.8 1011.7 6.2
28/10:00pm 15.7 9.8 13.5 87 1.2 NW 37 48 20 26 1011.6 1011.5 6.2
28/09:30pm 15.9 10.9 13.9 88 1.1 NW 33 44 18 24 1011.9 1011.8 6.0
28/09:16pm 14.8 7.8 12.5 86 1.3 WNW 41 54 22 29 1012.0 1011.9 5.8
28/09:00pm 15.2 6.4 12.3 83 1.6 W 50 67 27 36 1012.2 1012.1 4.4
28/08:55pm 16.0 7.8 12.9 82 1.7 W 48 67 26 36 1012.2 1012.1 4.0
28/08:52pm 16.3 8.4 12.8 80 1.9 W 46 59 25 32 1012.2 1012.1 3.8
28/08:48pm 17.5 10.8 13.4 77 2.3 WNW 41 59 22 32 1012.5 1012.5 3.6
28/08:30pm 18.5 11.7 14.8 79 2.2 NW 44 59 24 32 1012.2 1012.1 3.6
28/08:00pm 18.6 12.0 15.3 81 1.9 NW 44 69 24 37 1011.9 1011.8 3.6
28/07:39pm 18.4 12.3 15.1 81 1.9 NW 41 59 22 32 1011.8 1011.7 3.6
28/07:30pm 18.3 11.8 15.0 81 1.9 NW 43 54 23 29 1011.8 1011.7 3.6
28/07:00pm 18.2 12.5 15.3 83 1.7 NW 39 52 21 28 1011.9 1011.8 3.6
28/06:30pm 18.3 11.8 15.2 82 1.8 NNW 43 54 23 29 1011.5 1011.4 3.6
28/06:00pm 18.3 12.3 15.4 83 1.7 NW 41 56 22 30 1011.6 1011.5 3.6
28/05:30pm 18.2 11.8 15.3 83 1.7 NNW 43 52 23 28 1011.5 1011.4 3.6
28/05:00pm 18.2 11.8 15.5 84 1.6 NNW 43 56 23 30 1011.5 1011.4 3.6
28/04:30pm 18.1 12.5 15.5 85 1.5 NNW 39 54 21 29 1011.4 1011.3 3.6
28/04:23pm 18.1 13.3 15.7 86 1.4 NNW 35 54 19 29 1011.4 1011.3 3.6
28/04:00pm 18.1 13.3 15.7 86 1.4 NNW 35 48 19 26 1011.3 1011.2 3.6
28/03:30pm 17.9 12.8 15.7 87 1.3 NNW 37 54 20 29 1011.3 1011.2 3.6
28/03:19pm 17.8 14.4 15.8 88 1.2 NW 28 48 15 26 1011.4 1011.3 3.6
28/03:00pm 17.5 13.0 15.3 87 1.3 NNW 33 43 18 23 1011.5 1011.4 3.6
28/02:30pm 17.0 12.9 15.0 88 1.2 NW 30 43 16 23 1011.5 1011.4 3.6
28/02:00pm 16.6 10.7 14.6 88 1.2 WNW 39 50 21 27 1011.9 1011.8 3.6
28/01:30pm 16.5 9.1 14.3 87 1.3 WNW 46 57 25 31 1012.2 1012.1 3.6
28/01:00pm 15.8 8.7 13.3 85 1.4 NW 43 70 23 38 1012.5 1012.5 3.2
28/12:56pm 17.2 11.6 14.5 84 1.6 NW 37 70 20 38 1012.6 1012.6 0.8
28/12:30pm 18.0 11.9 15.1 83 1.7 NNW 41 54 22 29 1012.8 1012.8 0.0
28/12:00pm 18.7 12.2 15.2 80 2.1 NNW 43 52 23 28 1013.2 1013.2 0.0
28/11:30am 18.9 12.9 15.4 80 2.1 NNW 41 52 22 28 1013.3 1013.3 0.0
28/11:00am 18.5 12.0 15.0 80 2.1 NNW 43 56 23 30 1013.4 1013.4 0.0
28/10:30am 18.7 12.0 15.2 80 2.1 NNW 44 59 24 32 1013.5 1013.5 0.0
28/10:00am 19.2 12.6 15.3 78 2.3 NNW 44 59 24 32 1013.6 1013.6 0.0
28/09:30am 18.9 13.3 15.4 80 2.1 NNW 39 50 21 27 1013.6 1013.6 0.0
28/09:00am 18.8 13.2 15.5 81 2.0 NNW 39 48 21 26 1013.8 1013.8 0.0
28/08:41am 18.5 12.8 15.2 81 1.9 NNW 39 59 21 32 1013.6 1013.6 0.0
28/08:30am 18.3 12.5 15.0 81 1.9 NNW 39 54 21 29 1013.7 1013.7 0.0
28/08:00am 17.9 11.7 14.8 82 1.8 NNW 41 56 22 30 1013.6 1013.6 0.0
28/07:30am 17.8 11.8 14.5 81 1.9 NNW 39 56 21 30 1013.5 1013.5 0.0
28/07:00am 17.8 11.0 14.3 80 2.0 NNW 43 59 23 32 1013.6 1013.6 0.0
28/06:52am 17.7 11.6 14.0 79 2.1 NNW 39 59 21 32 1013.5 1013.5 0.0
28/06:30am 17.7 11.6 14.0 79 2.1 NNW 39 56 21 30 1013.2 1013.2 0.0
28/06:00am 17.6 11.6 13.3 76 2.4 NNW 37 54 20 29 1013.1 1013.1 0.0
28/05:30am 17.7 11.3 13.2 75 2.5 NNW 39 54 21 29 1013.1 1013.1 0.0
28/05:01am 17.7 11.2 13.0 74 2.6 N 39 57 21 31 1013.1 1013.1 0.0
28/05:00am 17.7 10.9 13.0 74 2.6 N 41 57 22 31 1013.1 1013.1 0.0
28/04:30am 17.7 10.9 13.0 74 2.6 N 41 56 22 30 1012.8 1012.8 0.0
28/04:00am 17.5 11.3 12.6 73 2.7 N 37 50 20 27 1013.1 1013.1 0.0
28/03:30am 17.5 10.9 12.6 73 2.7 N 39 52 21 28 1013.3 1013.3 0.0
28/03:00am 17.4 11.2 12.5 73 2.7 N 37 48 20 26 1013.8 1013.8 0.0
28/02:30am 17.0 11.5 12.3 74 2.6 N 33 44 18 24 1014.1 1014.1 0.0
28/02:00am 16.7 11.2 12.5 76 2.3 N 33 44 18 24 1014.6 1014.6 0.0
28/01:30am 16.6 11.1 12.4 76 2.3 N 33 44 18 24 1015.1 1015.1 0.0
28/01:00am 16.5 10.9 12.1 75 2.4 N 33 43 18 23 1015.2 1015.2 0.0
28/12:30am 16.3 10.8 11.9 75 2.4 N 32 43 17 23 1015.5 1015.5 0.0
28/12:00am 16.0 11.2 11.6 75 2.4 N 28 37 15 20 1016.0 1016.0 0.0
 
Date/Time
WST
Temp
°C
App
Temp
°C
Dew
Point
Rel
Hum
%
Delta-T
°C
Wind Press
QNH
hPa
Press
MSL
hPa
Rain
since 9 am
mm
Dir
 
Spd
km/h
Gust
km/h
Spd
kts
Gust
kts
27/11:30pm 15.8 11.0 11.6 76 2.3 N 28 35 15 19 1016.5 1016.5 0.0
27/11:00pm 15.6 11.8 11.2 75 2.4 N 22 32 12 17 1016.9 1016.9 0.0
27/10:30pm 15.5 11.7 11.1 75 2.4 NNW 22 30 12 16 1017.2 1017.2 0.0
27/10:00pm 15.5 11.6 10.9 74 2.5 NNW 22 30 12 16 1017.5 1017.5 0.0
27/09:30pm 15.4 11.4 10.6 73 2.5 NW 22 30 12 16 1018.0 1018.0 0.0
27/09:00pm 15.5 11.5 10.3 71 2.7 NW 22 32 12 17 1018.2 1018.2 0.0
27/08:30pm 15.9 11.6 10.7 71 2.8 NW 24 33 13 18 1018.0 1018.0 0.0
27/08:00pm 15.8 11.4 10.3 70 2.9 NW 24 35 13 19 1017.9 1017.9 0.0
27/07:30pm 15.6 11.1 9.9 69 3.0 NW 24 32 13 17 1017.5 1017.5 0.0
27/07:00pm 15.5 9.7 9.6 68 3.1 WNW 30 37 16 20 1017.9 1017.9 0.0
27/06:30pm 15.6 8.9 9.5 67 3.2 WNW 35 44 19 24 1017.9 1017.9 0.0

Other Formats:

Comma delimited format used in spreadsheet applications
http://www.bom.gov.au/fwo/IDW60801/IDW60801.94600.axf

JavaScript Object Notation format (JSON) in row-major order
http://www.bom.gov.au/fwo/IDW60801/IDW60801.94600.json